sensor_id;sensor_type;location;lat;lon;timestamp;pressure;altitude;pressure_sealevel;temperature;humidity
48848;BME280;36611;51.638;5.784;2023-02-11T00:02:11;103319.22;;;10.92;56.32
48848;BME280;36611;51.638;5.784;2023-02-11T00:04:38;103319.22;;;10.92;56.43
48848;BME280;36611;51.638;5.784;2023-02-11T00:07:05;103313.84;;;10.92;56.26
48848;BME280;36611;51.638;5.784;2023-02-11T00:09:31;103309.34;;;10.93;56.24
48848;BME280;36611;51.638;5.784;2023-02-11T00:11:58;103308.47;;;10.92;56.27
48848;BME280;36611;51.638;5.784;2023-02-11T00:14:25;103307.59;;;10.92;56.21
48848;BME280;36611;51.638;5.784;2023-02-11T00:16:52;103302.25;;;10.90;56.48
48848;BME280;36611;51.638;5.784;2023-02-11T00:19:18;103304.06;;;10.90;56.34
48848;BME280;36611;51.638;5.784;2023-02-11T00:21:45;103300.50;;;10.89;56.43
48848;BME280;36611;51.638;5.784;2023-02-11T00:24:12;103294.19;;;10.90;56.45
48848;BME280;36611;51.638;5.784;2023-02-11T00:26:38;103304.94;;;10.90;56.26
48848;BME280;36611;51.638;5.784;2023-02-11T00:29:05;103313.94;;;10.89;56.35
48848;BME280;36611;51.638;5.784;2023-02-11T00:31:32;103309.44;;;10.90;56.43
48848;BME280;36611;51.638;5.784;2023-02-11T00:33:59;103299.63;;;10.89;56.56
48848;BME280;36611;51.638;5.784;2023-02-11T00:36:28;103309.44;;;10.90;56.23
48848;BME280;36611;51.638;5.784;2023-02-11T00:38:56;103291.56;;;10.89;56.32
48848;BME280;36611;51.638;5.784;2023-02-11T00:41:23;103296.97;;;10.87;56.26
48848;BME280;36611;51.638;5.784;2023-02-11T00:43:50;103301.47;;;10.87;56.22
48848;BME280;36611;51.638;5.784;2023-02-11T00:46:17;103303.34;;;10.85;56.37
48848;BME280;36611;51.638;5.784;2023-02-11T00:48:44;103299.78;;;10.84;56.37
48848;BME280;36611;51.638;5.784;2023-02-11T00:51:11;103307.78;;;10.86;56.34
48848;BME280;36611;51.638;5.784;2023-02-11T00:53:38;103310.53;;;10.84;56.42
48848;BME280;36611;51.638;5.784;2023-02-11T00:56:06;103316.84;;;10.83;56.22
48848;BME280;36611;51.638;5.784;2023-02-11T00:58:33;103304.28;;;10.83;56.31
48848;BME280;36611;51.638;5.784;2023-02-11T01:01:00;103310.53;;;10.84;56.49
48848;BME280;36611;51.638;5.784;2023-02-11T01:03:27;103318.59;;;10.84;56.40
48848;BME280;36611;51.638;5.784;2023-02-11T01:05:54;103306.97;;;10.83;56.24
48848;BME280;36611;51.638;5.784;2023-02-11T01:08:21;103306.97;;;10.83;56.20
48848;BME280;36611;51.638;5.784;2023-02-11T01:11:02;103315.94;;;10.82;56.46
48848;BME280;36611;51.638;5.784;2023-02-11T01:13:33;103307.00;;;10.82;56.21
48848;BME280;36611;51.638;5.784;2023-02-11T01:16:00;103314.25;;;10.80;56.53
48848;BME280;36611;51.638;5.784;2023-02-11T01:18:27;103314.28;;;10.78;56.28
48848;BME280;36611;51.638;5.784;2023-02-11T01:20:54;103316.97;;;10.78;56.53
48848;BME280;36611;51.638;5.784;2023-02-11T01:23:21;103320.59;;;10.77;56.44
48848;BME280;36611;51.638;5.784;2023-02-11T01:25:48;103323.28;;;10.77;56.56
48848;BME280;36611;51.638;5.784;2023-02-11T01:28:24;103327.78;;;10.77;56.59
48848;BME280;36611;51.638;5.784;2023-02-11T01:30:51;103317.91;;;10.77;56.56
48848;BME280;36611;51.638;5.784;2023-02-11T01:33:18;103314.28;;;10.78;56.37
48848;BME280;36611;51.638;5.784;2023-02-11T01:35:45;103301.84;;;10.76;56.38
48848;BME280;36611;51.638;5.784;2023-02-11T01:38:22;103300.97;;;10.75;56.47
48848;BME280;36611;51.638;5.784;2023-02-11T01:40:52;103288.44;;;10.74;56.55
48848;BME280;36611;51.638;5.784;2023-02-11T01:43:20;103283.06;;;10.74;56.64
48848;BME280;36611;51.638;5.784;2023-02-11T01:48:18;103271.34;;;10.77;56.63
48848;BME280;36611;51.638;5.784;2023-02-11T01:50:49;103260.59;;;10.77;56.38
48848;BME280;36611;51.638;5.784;2023-02-11T01:53:16;103257.84;;;10.78;56.45
48848;BME280;36611;51.638;5.784;2023-02-11T01:56:04;103250.66;;;10.79;56.30
48848;BME280;36611;51.638;5.784;2023-02-11T01:58:50;103253.47;;;10.76;56.20
48848;BME280;36611;51.638;5.784;2023-02-11T02:01:22;103254.44;;;10.73;56.22
48848;BME280;36611;51.638;5.784;2023-02-11T02:03:53;103255.47;;;10.69;56.28
48848;BME280;36611;51.638;5.784;2023-02-11T02:06:26;103262.72;;;10.67;56.33
48848;BME280;36611;51.638;5.784;2023-02-11T02:09:24;103270.00;;;10.64;56.50
48848;BME280;36611;51.638;5.784;2023-02-11T02:11:53;103287.00;;;10.64;56.48
48848;BME280;36611;51.638;5.784;2023-02-11T02:14:20;103292.41;;;10.63;56.27
48848;BME280;36611;51.638;5.784;2023-02-11T02:16:46;103305.91;;;10.61;56.51
48848;BME280;36611;51.638;5.784;2023-02-11T02:25:29;103284.41;;;10.61;56.29
48848;BME280;36611;51.638;5.784;2023-02-11T02:36:21;103257.59;;;10.60;56.39
48848;BME280;36611;51.638;5.784;2023-02-11T02:38:58;103252.25;;;10.58;56.49
48848;BME280;36611;51.638;5.784;2023-02-11T02:41:29;103245.94;;;10.59;56.48
48848;BME280;36611;51.638;5.784;2023-02-11T02:43:57;103241.47;;;10.60;56.59
48848;BME280;36611;51.638;5.784;2023-02-11T02:46:30;103246.84;;;10.60;56.67
48848;BME280;36611;51.638;5.784;2023-02-11T02:48:57;103271.03;;;10.60;56.67
48848;BME280;36611;51.638;5.784;2023-02-11T02:54:57;103277.22;;;10.62;56.64
48848;BME280;36611;51.638;5.784;2023-02-11T03:00:40;103270.13;;;10.59;56.62
48848;BME280;36611;51.638;5.784;2023-02-11T03:07:04;103248.66;;;10.59;56.55
48848;BME280;36611;51.638;5.784;2023-02-11T03:09:07;103251.28;;;10.61;56.40
48848;BME280;36611;51.638;5.784;2023-02-11T03:11:38;103257.53;;;10.61;56.76
48848;BME280;36611;51.638;5.784;2023-02-11T03:14:08;103256.59;;;10.62;56.67
48848;BME280;36611;51.638;5.784;2023-02-11T03:16:37;103249.47;;;10.61;56.51
48848;BME280;36611;51.638;5.784;2023-02-11T03:19:11;103247.72;;;10.60;56.61
48848;BME280;36611;51.638;5.784;2023-02-11T03:21:40;103247.75;;;10.59;56.82
48848;BME280;36611;51.638;5.784;2023-02-11T03:24:15;103251.44;;;10.56;56.63
48848;BME280;36611;51.638;5.784;2023-02-11T03:26:49;103248.75;;;10.56;56.78
48848;BME280;36611;51.638;5.784;2023-02-11T03:32:03;103247.91;;;10.54;56.59
48848;BME280;36611;51.638;5.784;2023-02-11T03:34:39;103261.44;;;10.51;56.70
48848;BME280;36611;51.638;5.784;2023-02-11T03:37:19;103260.56;;;10.50;56.92
48848;BME280;36611;51.638;5.784;2023-02-11T03:39:53;103258.75;;;10.51;56.82
48848;BME280;36611;51.638;5.784;2023-02-11T03:42:23;103263.25;;;10.50;56.92
48848;BME280;36611;51.638;5.784;2023-02-11T03:44:58;103254.31;;;10.50;56.70
48848;BME280;36611;51.638;5.784;2023-02-11T03:47:30;103248.13;;;10.48;56.71
48848;BME280;36611;51.638;5.784;2023-02-11T03:50:00;103244.50;;;10.49;56.88
48848;BME280;36611;51.638;5.784;2023-02-11T03:52:29;103242.75;;;10.48;56.91
48848;BME280;36611;51.638;5.784;2023-02-11T03:54:57;103240.94;;;10.48;56.69
48848;BME280;36611;51.638;5.784;2023-02-11T03:57:25;103239.13;;;10.49;56.83
48848;BME280;36611;51.638;5.784;2023-02-11T03:59:57;103229.34;;;10.46;56.93
48848;BME280;36611;51.638;5.784;2023-02-11T04:02:28;103232.09;;;10.45;56.77
48848;BME280;36611;51.638;5.784;2023-02-11T04:04:56;103229.47;;;10.43;56.81
48848;BME280;36611;51.638;5.784;2023-02-11T04:07:23;103234.00;;;10.41;56.85
48848;BME280;36611;51.638;5.784;2023-02-11T04:09:50;103220.63;;;10.38;56.86
48848;BME280;36611;51.638;5.784;2023-02-11T04:12:17;103218.94;;;10.36;56.97
48848;BME280;36611;51.638;5.784;2023-02-11T04:14:43;103207.34;;;10.34;56.76
48848;BME280;36611;51.638;5.784;2023-02-11T04:17:11;103207.34;;;10.34;56.88
48848;BME280;36611;51.638;5.784;2023-02-11T04:19:38;103214.50;;;10.35;57.02
48848;BME280;36611;51.638;5.784;2023-02-11T04:22:06;103218.09;;;10.34;57.04
48848;BME280;36611;51.638;5.784;2023-02-11T04:24:33;103225.31;;;10.32;56.76
48848;BME280;36611;51.638;5.784;2023-02-11T04:27:00;103222.66;;;10.32;57.21
48848;BME280;36611;51.638;5.784;2023-02-11T04:29:26;103234.31;;;10.31;57.01
48848;BME280;36611;51.638;5.784;2023-02-11T04:31:53;103235.19;;;10.31;57.32
48848;BME280;36611;51.638;5.784;2023-02-11T04:34:21;103233.38;;;10.32;57.16
48848;BME280;36611;51.638;5.784;2023-02-11T04:36:48;103233.38;;;10.32;57.27
48848;BME280;36611;51.638;5.784;2023-02-11T04:39:14;103239.63;;;10.32;57.29
48848;BME280;36611;51.638;5.784;2023-02-11T04:41:41;103252.16;;;10.33;57.20
48848;BME280;36611;51.638;5.784;2023-02-11T04:44:08;103247.66;;;10.34;57.18
48848;BME280;36611;51.638;5.784;2023-02-11T04:46:35;103247.59;;;10.35;57.25
48848;BME280;36611;51.638;5.784;2023-02-11T04:49:02;103239.53;;;10.35;57.26
48848;BME280;36611;51.638;5.784;2023-02-11T04:51:29;103241.34;;;10.35;57.34
48848;BME280;36611;51.638;5.784;2023-02-11T04:53:56;103243.94;;;10.38;57.42
48848;BME280;36611;51.638;5.784;2023-02-11T04:56:22;103240.31;;;10.39;57.45
48848;BME280;36611;51.638;5.784;2023-02-11T04:58:49;103239.38;;;10.40;57.34
48848;BME280;36611;51.638;5.784;2023-02-11T05:01:16;103243.00;;;10.40;57.59
48848;BME280;36611;51.638;5.784;2023-02-11T05:03:43;103242.09;;;10.40;57.51
48848;BME280;36611;51.638;5.784;2023-02-11T05:06:10;103242.09;;;10.40;57.67
48848;BME280;36611;51.638;5.784;2023-02-11T05:08:37;103236.72;;;10.40;57.57
48848;BME280;36611;51.638;5.784;2023-02-11T05:11:04;103242.06;;;10.41;57.81
48848;BME280;36611;51.638;5.784;2023-02-11T05:13:31;103242.00;;;10.43;57.57
48848;BME280;36611;51.638;5.784;2023-02-11T05:15:58;103233.91;;;10.44;57.65
48848;BME280;36611;51.638;5.784;2023-02-11T05:18:25;103247.28;;;10.46;57.89
48848;BME280;36611;51.638;5.784;2023-02-11T05:20:51;103240.97;;;10.47;57.74
48848;BME280;36611;51.638;5.784;2023-02-11T05:23:18;103233.75;;;10.49;57.68
48848;BME280;36611;51.638;5.784;2023-02-11T05:25:44;103226.56;;;10.49;57.90
48848;BME280;36611;51.638;5.784;2023-02-11T05:28:11;103226.53;;;10.51;57.97
48848;BME280;36611;51.638;5.784;2023-02-11T05:30:38;103222.91;;;10.52;57.92
48848;BME280;36611;51.638;5.784;2023-02-11T05:33:05;103232.78;;;10.52;57.90
48848;BME280;36611;51.638;5.784;2023-02-11T05:35:32;103228.28;;;10.52;57.96
48848;BME280;36611;51.638;5.784;2023-02-11T05:37:58;103234.53;;;10.53;57.95
48848;BME280;36611;51.638;5.784;2023-02-11T05:40:25;103233.66;;;10.52;57.66
48848;BME280;36611;51.638;5.784;2023-02-11T05:42:52;103222.97;;;10.50;58.01
48848;BME280;36611;51.638;5.784;2023-02-11T05:45:18;103221.19;;;10.49;57.88
48848;BME280;36611;51.638;5.784;2023-02-11T05:47:45;103223.88;;;10.49;57.80
48848;BME280;36611;51.638;5.784;2023-02-11T05:50:12;103232.81;;;10.50;57.83
48848;BME280;36611;51.638;5.784;2023-02-11T05:52:38;103231.03;;;10.50;57.95
48848;BME280;36611;51.638;5.784;2023-02-11T05:55:05;103230.97;;;10.52;57.96
48848;BME280;36611;51.638;5.784;2023-02-11T05:57:32;103238.16;;;10.52;58.00
48848;BME280;36611;51.638;5.784;2023-02-11T05:59:59;103241.72;;;10.52;58.17
48848;BME280;36611;51.638;5.784;2023-02-11T06:02:25;103237.16;;;10.54;58.15
48848;BME280;36611;51.638;5.784;2023-02-11T06:04:52;103237.13;;;10.56;58.05
48848;BME280;36611;51.638;5.784;2023-02-11T06:07:19;103230.81;;;10.57;58.16
48848;BME280;36611;51.638;5.784;2023-02-11T06:09:45;103230.75;;;10.58;58.08
48848;BME280;36611;51.638;5.784;2023-02-11T06:12:12;103231.66;;;10.59;58.32
48848;BME280;36611;51.638;5.784;2023-02-11T06:14:38;103238.81;;;10.58;58.01
48848;BME280;36611;51.638;5.784;2023-02-11T06:17:05;103246.88;;;10.58;58.15
48848;BME280;36611;51.638;5.784;2023-02-11T06:19:32;103246.00;;;10.58;57.81
48848;BME280;36611;51.638;5.784;2023-02-11T06:21:59;103249.56;;;10.58;58.04
48848;BME280;36611;51.638;5.784;2023-02-11T06:24:25;103241.41;;;10.61;58.18
48848;BME280;36611;51.638;5.784;2023-02-11T06:27:12;103246.72;;;10.63;58.17
48848;BME280;36611;51.638;5.784;2023-02-11T06:29:39;103248.53;;;10.62;58.16
48848;BME280;36611;51.638;5.784;2023-02-11T06:32:05;103247.72;;;10.60;58.05
48848;BME280;36611;51.638;5.784;2023-02-11T06:34:37;103250.41;;;10.60;58.38
48848;BME280;36611;51.638;5.784;2023-02-11T06:37:04;103259.34;;;10.61;58.33
48848;BME280;36611;51.638;5.784;2023-02-11T06:39:31;103255.78;;;10.60;58.37
48848;BME280;36611;51.638;5.784;2023-02-11T06:41:57;103253.97;;;10.61;58.39
48848;BME280;36611;51.638;5.784;2023-02-11T06:44:24;103256.66;;;10.61;58.09
48848;BME280;36611;51.638;5.784;2023-02-11T06:46:51;103247.72;;;10.60;58.43
48848;BME280;36611;51.638;5.784;2023-02-11T06:49:17;103253.97;;;10.61;58.43
48848;BME280;36611;51.638;5.784;2023-02-11T06:51:44;103253.91;;;10.62;58.39
48848;BME280;36611;51.638;5.784;2023-02-11T06:54:11;103251.22;;;10.62;58.57
48848;BME280;36611;51.638;5.784;2023-02-11T06:56:39;103252.09;;;10.63;58.52
48848;BME280;36611;51.638;5.784;2023-02-11T06:59:06;103257.44;;;10.64;58.44
48848;BME280;36611;51.638;5.784;2023-02-11T07:01:33;103265.50;;;10.64;58.39
48848;BME280;36611;51.638;5.784;2023-02-11T07:04:00;103263.59;;;10.68;58.55
48848;BME280;36611;51.638;5.784;2023-02-11T07:06:26;103266.16;;;10.71;58.48
48848;BME280;36611;51.638;5.784;2023-02-11T07:08:54;103256.34;;;10.70;58.30
48848;BME280;36611;51.638;5.784;2023-02-11T07:11:23;103265.34;;;10.69;58.39
48848;BME280;36611;51.638;5.784;2023-02-11T07:13:53;103264.47;;;10.68;58.41
48848;BME280;36611;51.638;5.784;2023-02-11T07:16:20;103265.41;;;10.67;58.47
48848;BME280;36611;51.638;5.784;2023-02-11T07:18:47;103274.34;;;10.68;58.32
48848;BME280;36611;51.638;5.784;2023-02-11T07:21:17;103276.09;;;10.69;58.59
48848;BME280;36611;51.638;5.784;2023-02-11T07:23:44;103275.22;;;10.68;58.56
48848;BME280;36611;51.638;5.784;2023-02-11T07:26:14;103278.78;;;10.69;58.65
48848;BME280;36611;51.638;5.784;2023-02-11T07:28:42;103277.84;;;10.70;58.62
48848;BME280;36611;51.638;5.784;2023-02-11T07:33:37;103276.03;;;10.70;58.78
48848;BME280;36611;51.638;5.784;2023-02-11T07:36:09;103274.22;;;10.71;58.79
48848;BME280;36611;51.638;5.784;2023-02-11T07:38:37;103283.16;;;10.71;58.78
48848;BME280;36611;51.638;5.784;2023-02-11T07:41:06;103288.56;;;10.71;58.74
48848;BME280;36611;51.638;5.784;2023-02-11T07:43:34;103288.50;;;10.73;58.75
48848;BME280;36611;51.638;5.784;2023-02-11T07:46:19;103293.81;;;10.74;58.70
48848;BME280;36611;51.638;5.784;2023-02-11T07:48:47;103297.34;;;10.76;58.64
48848;BME280;36611;51.638;5.784;2023-02-11T07:51:19;103304.47;;;10.77;58.87
48848;BME280;36611;51.638;5.784;2023-02-11T07:53:46;103302.66;;;10.78;58.69
48848;BME280;36611;51.638;5.784;2023-02-11T07:56:15;103304.41;;;10.79;58.80
48848;BME280;36611;51.638;5.784;2023-02-11T07:58:42;103302.56;;;10.81;58.81
48848;BME280;36611;51.638;5.784;2023-02-11T08:01:14;103300.81;;;10.80;58.90
48848;BME280;36611;51.638;5.784;2023-02-11T08:03:41;103305.25;;;10.81;59.07
48848;BME280;36611;51.638;5.784;2023-02-11T08:06:11;103303.50;;;10.80;59.07
48848;BME280;36611;51.638;5.784;2023-02-11T08:08:39;103305.25;;;10.81;58.99
48848;BME280;36611;51.638;5.784;2023-02-11T08:11:11;103304.28;;;10.83;58.99
48848;BME280;36611;51.638;5.784;2023-02-11T08:13:40;103304.22;;;10.85;59.27
48848;BME280;36611;51.638;5.784;2023-02-11T08:16:08;103306.03;;;10.85;59.01
48848;BME280;36611;51.638;5.784;2023-02-11T08:18:35;103313.16;;;10.86;58.83
48848;BME280;36611;51.638;5.784;2023-02-11T08:21:06;103321.13;;;10.89;59.05
48848;BME280;36611;51.638;5.784;2023-02-11T08:23:37;103320.16;;;10.91;59.28
48848;BME280;36611;51.638;5.784;2023-02-11T08:26:06;103320.09;;;10.93;59.22
48848;BME280;36611;51.638;5.784;2023-02-11T08:28:35;103314.63;;;10.96;59.36
48848;BME280;36611;51.638;5.784;2023-02-11T08:31:10;103316.38;;;10.97;59.12
48848;BME280;36611;51.638;5.784;2023-02-11T08:33:37;103319.88;;;10.99;59.04
48848;BME280;36611;51.638;5.784;2023-02-11T08:36:10;103320.78;;;10.99;59.15
48848;BME280;36611;51.638;5.784;2023-02-11T08:38:37;103318.97;;;11.00;59.03
48848;BME280;36611;51.638;5.784;2023-02-11T08:41:04;103318.97;;;11.00;59.42
48848;BME280;36611;51.638;5.784;2023-02-11T08:43:31;103316.16;;;11.03;59.13
48848;BME280;36611;51.638;5.784;2023-02-11T08:45:59;103321.50;;;11.04;59.38
48848;BME280;36611;51.638;5.784;2023-02-11T08:48:27;103325.94;;;11.05;59.27
48848;BME280;36611;51.638;5.784;2023-02-11T08:50:55;103325.00;;;11.06;59.33
48848;BME280;36611;51.638;5.784;2023-02-11T08:53:22;103333.03;;;11.08;59.30
48848;BME280;36611;51.638;5.784;2023-02-11T08:55:53;103328.44;;;11.11;59.55
48848;BME280;36611;51.638;5.784;2023-02-11T08:58:21;103329.22;;;11.15;59.32
48848;BME280;36611;51.638;5.784;2023-02-11T09:00:48;103333.56;;;11.19;59.34
48848;BME280;36611;51.638;5.784;2023-02-11T09:03:16;103323.66;;;11.21;59.57
48848;BME280;36611;51.638;5.784;2023-02-11T09:05:45;103328.03;;;11.24;59.52
48848;BME280;36611;51.638;5.784;2023-02-11T09:08:14;103328.81;;;11.27;59.67
48848;BME280;36611;51.638;5.784;2023-02-11T09:10:41;103336.72;;;11.32;59.68
48848;BME280;36611;51.638;5.784;2023-02-11T09:13:08;103340.19;;;11.35;59.58
48848;BME280;36611;51.638;5.784;2023-02-11T09:15:35;103340.09;;;11.38;59.61
48848;BME280;36611;51.638;5.784;2023-02-11T09:18:02;103344.47;;;11.41;59.62
48848;BME280;36611;51.638;5.784;2023-02-11T09:20:29;103343.50;;;11.43;59.48
48848;BME280;36611;51.638;5.784;2023-02-11T09:22:59;103347.00;;;11.45;59.51
48848;BME280;36611;51.638;5.784;2023-02-11T09:25:26;103356.78;;;11.48;59.63
48848;BME280;36611;51.638;5.784;2023-02-11T09:27:53;103360.28;;;11.50;59.70
48848;BME280;36611;51.638;5.784;2023-02-11T09:30:20;103362.88;;;11.53;59.60
48848;BME280;36611;51.638;5.784;2023-02-11T09:32:46;103356.50;;;11.56;59.55
48848;BME280;36611;51.638;5.784;2023-02-11T09:35:13;103360.03;;;11.58;59.42
48848;BME280;36611;51.638;5.784;2023-02-11T09:37:40;103353.72;;;11.59;59.66
48848;BME280;36611;51.638;5.784;2023-02-11T09:40:07;103362.63;;;11.61;59.72
48848;BME280;36611;51.638;5.784;2023-02-11T09:42:48;103366.25;;;11.60;59.71
48848;BME280;36611;51.638;5.784;2023-02-11T09:45:23;103362.50;;;11.64;59.56
48848;BME280;36611;51.638;5.784;2023-02-11T09:47:54;103364.22;;;11.66;59.67
48848;BME280;36611;51.638;5.784;2023-02-11T09:50:28;103372.16;;;11.69;59.51
48848;BME280;36611;51.638;5.784;2023-02-11T09:56:01;103377.34;;;11.75;59.77
48848;BME280;36611;51.638;5.784;2023-02-11T09:58:34;103376.38;;;11.78;59.66
48848;BME280;36611;51.638;5.784;2023-02-11T10:07:41;103385.00;;;11.88;59.33
48848;BME280;36611;51.638;5.784;2023-02-11T10:13:31;103395.59;;;11.94;59.59
48848;BME280;36611;51.638;5.784;2023-02-11T10:21:46;103406.13;;;12.00;59.30
48848;BME280;36611;51.638;5.784;2023-02-11T10:24:17;103412.28;;;12.03;59.07
48848;BME280;36611;51.638;5.784;2023-02-11T10:26:45;103407.78;;;12.04;59.56
48848;BME280;36611;51.638;5.784;2023-02-11T10:29:37;103406.84;;;12.05;59.69
48848;BME280;36611;51.638;5.784;2023-02-11T10:32:08;103420.16;;;12.09;59.48
48848;BME280;36611;51.638;5.784;2023-02-11T10:34:40;103419.22;;;12.11;59.54
48848;BME280;36611;51.638;5.784;2023-02-11T10:37:10;103421.97;;;12.09;59.60
48848;BME280;36611;51.638;5.784;2023-02-11T10:39:39;103424.59;;;12.11;59.83
48848;BME280;36611;51.638;5.784;2023-02-11T10:42:09;103427.28;;;12.11;59.44
48848;BME280;36611;51.638;5.784;2023-02-11T10:44:47;103419.97;;;12.14;59.56
48848;BME280;36611;51.638;5.784;2023-02-11T10:47:22;103427.06;;;12.17;59.49
48848;BME280;36611;51.638;5.784;2023-02-11T10:49:49;103427.00;;;12.18;59.55
48848;BME280;36611;51.638;5.784;2023-02-11T10:54:57;103435.09;;;12.18;59.47
48848;BME280;36611;51.638;5.784;2023-02-11T10:57:35;103433.22;;;12.20;59.22
48848;BME280;36611;51.638;5.784;2023-02-11T11:00:25;103440.47;;;12.18;59.44
48848;BME280;36611;51.638;5.784;2023-02-11T11:02:57;103429.66;;;12.20;59.51
48848;BME280;36611;51.638;5.784;2023-02-11T11:05:34;103435.91;;;12.20;59.49
48848;BME280;36611;51.638;5.784;2023-02-11T11:08:06;103439.50;;;12.21;59.63
48848;BME280;36611;51.638;5.784;2023-02-11T11:13:29;103438.44;;;12.25;59.35
48848;BME280;36611;51.638;5.784;2023-02-11T11:16:08;103433.81;;;12.28;59.45
48848;BME280;36611;51.638;5.784;2023-02-11T11:18:35;103438.22;;;12.31;59.64
48848;BME280;36611;51.638;5.784;2023-02-11T11:21:04;103435.47;;;12.32;59.67
48848;BME280;36611;51.638;5.784;2023-02-11T11:23:36;103438.03;;;12.35;59.40
48848;BME280;36611;51.638;5.784;2023-02-11T11:26:09;103444.13;;;12.40;59.60
48848;BME280;36611;51.638;5.784;2023-02-11T11:28:53;103433.25;;;12.44;59.47
48848;BME280;36611;51.638;5.784;2023-02-11T11:31:27;103435.81;;;12.47;59.78
48848;BME280;36611;51.638;5.784;2023-02-11T11:33:57;103443.72;;;12.51;59.89
48848;BME280;36611;51.638;5.784;2023-02-11T11:36:44;103440.88;;;12.56;59.72
48848;BME280;36611;51.638;5.784;2023-02-11T11:39:26;103434.41;;;12.60;59.53
48848;BME280;36611;51.638;5.784;2023-02-11T11:41:58;103434.22;;;12.66;59.48
48848;BME280;36611;51.638;5.784;2023-02-11T11:44:36;103434.91;;;12.71;59.81
48848;BME280;36611;51.638;5.784;2023-02-11T11:49:47;103428.41;;;12.77;59.71
48848;BME280;36611;51.638;5.784;2023-02-11T11:52:58;103428.22;;;12.81;59.67
48848;BME280;36611;51.638;5.784;2023-02-11T11:55:32;103419.13;;;12.84;59.55
48848;BME280;36611;51.638;5.784;2023-02-11T11:58:00;103422.69;;;12.84;59.48
48848;BME280;36611;51.638;5.784;2023-02-11T12:00:34;103419.94;;;12.86;59.29
48848;BME280;36611;51.638;5.784;2023-02-11T12:03:15;103416.19;;;12.90;59.50
48848;BME280;36611;51.638;5.784;2023-02-11T12:19:40;103417.28;;;13.29;59.55
48848;BME280;36611;51.638;5.784;2023-02-11T12:22:55;103413.38;;;13.36;59.31
48848;BME280;36611;51.638;5.784;2023-02-11T12:25:33;103414.03;;;13.43;59.15
48848;BME280;36611;51.638;5.784;2023-02-11T12:37:13;103404.53;;;13.55;59.19
48848;BME280;36611;51.638;5.784;2023-02-11T12:39:55;103398.06;;;13.59;59.16
48848;BME280;36611;51.638;5.784;2023-02-11T12:42:42;103394.16;;;13.66;58.93
48848;BME280;36611;51.638;5.784;2023-02-11T12:51:53;103391.84;;;13.77;58.96
48848;BME280;36611;51.638;5.784;2023-02-11T12:54:41;103383.63;;;13.80;58.77
48848;BME280;36611;51.638;5.784;2023-02-11T12:57:18;103393.28;;;13.86;58.38
48848;BME280;36611;51.638;5.784;2023-02-11T13:02:40;103381.19;;;13.94;58.84
48848;BME280;36611;51.638;5.784;2023-02-11T13:05:22;103386.31;;;14.00;58.66
48848;BME280;36611;51.638;5.784;2023-02-11T13:07:52;103395.06;;;14.06;58.62
48848;BME280;36611;51.638;5.784;2023-02-11T13:10:25;103401.03;;;14.14;58.38
48848;BME280;36611;51.638;5.784;2023-02-11T13:12:54;103396.25;;;14.20;58.76
48848;BME280;36611;51.638;5.784;2023-02-11T13:15:53;103398.59;;;14.28;58.39
48848;BME280;36611;51.638;5.784;2023-02-11T13:18:34;103393.84;;;14.33;58.55
48848;BME280;36611;51.638;5.784;2023-02-11T13:23:53;103398.72;;;14.45;57.88
48848;BME280;36611;51.638;5.784;2023-02-11T13:26:49;103401.28;;;14.48;58.18
48848;BME280;36611;51.638;5.784;2023-02-11T13:29:28;103394.84;;;14.51;58.05
48848;BME280;36611;51.638;5.784;2023-02-11T13:32:06;103396.66;;;14.50;57.57
48848;BME280;36611;51.638;5.784;2023-02-11T13:37:45;103392.22;;;14.49;57.51
48848;BME280;36611;51.638;5.784;2023-02-11T13:40:25;103375.97;;;14.49;57.28
48848;BME280;36611;51.638;5.784;2023-02-11T13:42:58;103392.13;;;14.51;57.46
48848;BME280;36611;51.638;5.784;2023-02-11T13:48:03;103393.00;;;14.51;57.10
48848;BME280;36611;51.638;5.784;2023-02-11T13:50:37;103388.34;;;14.55;57.11
48848;BME280;36611;51.638;5.784;2023-02-11T13:53:05;103393.59;;;14.58;57.03
48848;BME280;36611;51.638;5.784;2023-02-11T13:55:34;103395.34;;;14.59;57.27
48848;BME280;36611;51.638;5.784;2023-02-11T14:03:27;103391.63;;;14.61;57.24
48848;BME280;36611;51.638;5.784;2023-02-11T14:06:14;103395.94;;;14.66;56.92
48848;BME280;36611;51.638;5.784;2023-02-11T14:11:43;103394.25;;;14.63;56.98
48848;BME280;36611;51.638;5.784;2023-02-11T14:19:43;103406.09;;;14.60;56.90
48848;BME280;36611;51.638;5.784;2023-02-11T14:22:12;103393.22;;;14.66;56.59
48848;BME280;36611;51.638;5.784;2023-02-11T14:24:52;103404.84;;;14.68;56.49
48848;BME280;36611;51.638;5.784;2023-02-11T14:27:25;103405.88;;;14.65;56.62
48848;BME280;36611;51.638;5.784;2023-02-11T14:30:01;103404.28;;;14.61;56.55
48848;BME280;36611;51.638;5.784;2023-02-11T14:32:38;103401.63;;;14.59;56.40
48848;BME280;36611;51.638;5.784;2023-02-11T14:38:15;103402.66;;;14.57;56.46
48848;BME280;36611;51.638;5.784;2023-02-11T14:40:59;103402.59;;;14.58;56.11
48848;BME280;36611;51.638;5.784;2023-02-11T14:43:33;103396.31;;;14.58;56.11
48848;BME280;36611;51.638;5.784;2023-02-11T14:46:01;103406.38;;;14.54;56.18
48848;BME280;36611;51.638;5.784;2023-02-11T14:48:36;103403.84;;;14.51;56.44
48848;BME280;36611;51.638;5.784;2023-02-11T14:51:14;103409.25;;;14.51;56.13
48848;BME280;36611;51.638;5.784;2023-02-11T14:53:45;103408.28;;;14.52;56.23
48848;BME280;36611;51.638;5.784;2023-02-11T14:56:40;103407.41;;;14.52;56.14
48848;BME280;36611;51.638;5.784;2023-02-11T14:59:19;103412.75;;;14.53;56.57
48848;BME280;36611;51.638;5.784;2023-02-11T15:01:51;103405.72;;;14.49;56.10
48848;BME280;36611;51.638;5.784;2023-02-11T15:04:23;103401.28;;;14.48;56.29
48848;BME280;36611;51.638;5.784;2023-02-11T15:06:51;103402.22;;;14.47;56.12